METAR Data
IDs: Format: Raw Decoded Include TAF

Data at: 0009 UTC 25 Apr 2019

METAR for:KFOD (Fort Dodge Rgnl, IA, US)
Text:KFOD 242356Z AUTO 21006KT 10SM CLR 22/02 A2976 RMK AO2 SLP101 T02220022 10233 20189 57014
Temperature: 22.2°C ( 72°F)
Dewpoint: 2.2°C ( 36°F) [RH = 27%]
Pressure (altimeter):29.76 inches Hg (1007.9 mb) [Sea level pressure: 1010.1 mb]
Winds:from the SSW (210 degrees) at 7 MPH (6 knots; 3.1 m/s)
Visibility:10 or more sm (16+ km)
Ceiling:at least 12,000 feet AGL
Clouds:sky clear below 12,000 feet AGL
QC Flag:automated observation with no human augmentation